sensor_id;sensor_type;location;lat;lon;timestamp;P1;durP1;ratioP1;P2;durP2;ratioP2
19030;SDS011;9648;51.130;13.978;2022-10-16T00:00:32;21.13;;;17.75;;
19030;SDS011;9648;51.130;13.978;2022-10-16T00:03:00;20.50;;;17.40;;
19030;SDS011;9648;51.130;13.978;2022-10-16T00:05:27;22.05;;;17.92;;
19030;SDS011;9648;51.130;13.978;2022-10-16T00:07:54;21.65;;;18.25;;
19030;SDS011;9648;51.130;13.978;2022-10-16T00:10:21;21.48;;;18.00;;
19030;SDS011;9648;51.130;13.978;2022-10-16T00:12:49;21.88;;;18.00;;
19030;SDS011;9648;51.130;13.978;2022-10-16T00:15:16;21.95;;;18.40;;
19030;SDS011;9648;51.130;13.978;2022-10-16T00:17:43;19.95;;;16.95;;
19030;SDS011;9648;51.130;13.978;2022-10-16T00:20:10;24.35;;;18.20;;
19030;SDS011;9648;51.130;13.978;2022-10-16T00:22:37;22.10;;;18.33;;
19030;SDS011;9648;51.130;13.978;2022-10-16T00:25:05;20.25;;;17.15;;
19030;SDS011;9648;51.130;13.978;2022-10-16T00:27:32;21.85;;;17.40;;
19030;SDS011;9648;51.130;13.978;2022-10-16T00:30:01;20.75;;;16.95;;
19030;SDS011;9648;51.130;13.978;2022-10-16T00:32:28;19.80;;;15.90;;
19030;SDS011;9648;51.130;13.978;2022-10-16T00:34:55;19.53;;;16.40;;
19030;SDS011;9648;51.130;13.978;2022-10-16T00:37:22;20.07;;;16.47;;
19030;SDS011;9648;51.130;13.978;2022-10-16T00:39:49;22.20;;;18.02;;
19030;SDS011;9648;51.130;13.978;2022-10-16T00:42:16;19.83;;;17.58;;
19030;SDS011;9648;51.130;13.978;2022-10-16T00:44:45;21.67;;;18.02;;
19030;SDS011;9648;51.130;13.978;2022-10-16T00:47:17;20.45;;;17.67;;
19030;SDS011;9648;51.130;13.978;2022-10-16T00:49:47;19.95;;;17.33;;
19030;SDS011;9648;51.130;13.978;2022-10-16T00:52:16;23.42;;;18.40;;
19030;SDS011;9648;51.130;13.978;2022-10-16T00:54:43;21.42;;;17.92;;
19030;SDS011;9648;51.130;13.978;2022-10-16T00:57:12;19.60;;;16.47;;
19030;SDS011;9648;51.130;13.978;2022-10-16T00:59:39;21.33;;;17.30;;
19030;SDS011;9648;51.130;13.978;2022-10-16T01:02:08;19.02;;;16.73;;
19030;SDS011;9648;51.130;13.978;2022-10-16T01:04:39;20.67;;;17.10;;
19030;SDS011;9648;51.130;13.978;2022-10-16T01:07:10;21.25;;;17.95;;
19030;SDS011;9648;51.130;13.978;2022-10-16T01:09:46;19.85;;;16.92;;
19030;SDS011;9648;51.130;13.978;2022-10-16T01:12:22;20.40;;;17.23;;
19030;SDS011;9648;51.130;13.978;2022-10-16T01:15:01;19.17;;;16.27;;
19030;SDS011;9648;51.130;13.978;2022-10-16T01:17:37;24.58;;;19.63;;
19030;SDS011;9648;51.130;13.978;2022-10-16T01:20:11;24.50;;;18.67;;
19030;SDS011;9648;51.130;13.978;2022-10-16T01:22:48;21.83;;;18.80;;
19030;SDS011;9648;51.130;13.978;2022-10-16T01:25:29;25.85;;;20.90;;
19030;SDS011;9648;51.130;13.978;2022-10-16T01:28:07;26.00;;;20.88;;
19030;SDS011;9648;51.130;13.978;2022-10-16T01:30:38;28.70;;;23.42;;
19030;SDS011;9648;51.130;13.978;2022-10-16T01:33:08;29.73;;;24.00;;
19030;SDS011;9648;51.130;13.978;2022-10-16T01:35:40;24.23;;;20.65;;
19030;SDS011;9648;51.130;13.978;2022-10-16T01:38:12;29.35;;;23.30;;
19030;SDS011;9648;51.130;13.978;2022-10-16T01:40:44;27.83;;;23.73;;
19030;SDS011;9648;51.130;13.978;2022-10-16T01:43:17;27.60;;;22.98;;
19030;SDS011;9648;51.130;13.978;2022-10-16T01:45:47;34.17;;;26.40;;
19030;SDS011;9648;51.130;13.978;2022-10-16T01:48:15;28.88;;;24.30;;
19030;SDS011;9648;51.130;13.978;2022-10-16T01:50:55;26.88;;;22.00;;
19030;SDS011;9648;51.130;13.978;2022-10-16T01:53:26;26.77;;;22.20;;
19030;SDS011;9648;51.130;13.978;2022-10-16T01:55:54;27.05;;;22.73;;
19030;SDS011;9648;51.130;13.978;2022-10-16T01:58:24;27.35;;;22.70;;
19030;SDS011;9648;51.130;13.978;2022-10-16T02:00:55;27.05;;;23.55;;
19030;SDS011;9648;51.130;13.978;2022-10-16T02:03:23;29.77;;;24.45;;
19030;SDS011;9648;51.130;13.978;2022-10-16T02:05:50;25.67;;;22.77;;
19030;SDS011;9648;51.130;13.978;2022-10-16T02:08:19;25.80;;;21.63;;
19030;SDS011;9648;51.130;13.978;2022-10-16T02:10:48;25.65;;;22.45;;
19030;SDS011;9648;51.130;13.978;2022-10-16T02:13:17;26.40;;;22.27;;
19030;SDS011;9648;51.130;13.978;2022-10-16T02:15:49;26.30;;;21.95;;
19030;SDS011;9648;51.130;13.978;2022-10-16T02:18:16;24.45;;;21.83;;
19030;SDS011;9648;51.130;13.978;2022-10-16T02:20:44;24.65;;;21.20;;
19030;SDS011;9648;51.130;13.978;2022-10-16T02:23:27;23.33;;;20.83;;
19030;SDS011;9648;51.130;13.978;2022-10-16T02:26:01;22.98;;;19.63;;
19030;SDS011;9648;51.130;13.978;2022-10-16T02:28:32;26.15;;;21.98;;
19030;SDS011;9648;51.130;13.978;2022-10-16T02:31:06;21.45;;;19.08;;
19030;SDS011;9648;51.130;13.978;2022-10-16T02:33:37;21.92;;;19.52;;
19030;SDS011;9648;51.130;13.978;2022-10-16T02:36:06;23.08;;;19.83;;
19030;SDS011;9648;51.130;13.978;2022-10-16T02:38:34;21.17;;;18.83;;
19030;SDS011;9648;51.130;13.978;2022-10-16T02:41:01;21.02;;;18.77;;
19030;SDS011;9648;51.130;13.978;2022-10-16T02:43:29;20.67;;;18.48;;
19030;SDS011;9648;51.130;13.978;2022-10-16T02:45:56;21.40;;;17.17;;
19030;SDS011;9648;51.130;13.978;2022-10-16T02:48:24;19.38;;;17.38;;
19030;SDS011;9648;51.130;13.978;2022-10-16T02:50:51;18.80;;;16.83;;
19030;SDS011;9648;51.130;13.978;2022-10-16T02:53:18;21.30;;;19.00;;
19030;SDS011;9648;51.130;13.978;2022-10-16T02:55:44;19.65;;;17.45;;
19030;SDS011;9648;51.130;13.978;2022-10-16T02:58:11;19.20;;;16.47;;
19030;SDS011;9648;51.130;13.978;2022-10-16T03:00:38;19.70;;;17.60;;
19030;SDS011;9648;51.130;13.978;2022-10-16T03:03:05;19.48;;;17.38;;
19030;SDS011;9648;51.130;13.978;2022-10-16T03:05:33;19.17;;;16.53;;
19030;SDS011;9648;51.130;13.978;2022-10-16T03:08:00;19.77;;;17.27;;
19030;SDS011;9648;51.130;13.978;2022-10-16T03:10:27;17.27;;;15.50;;
19030;SDS011;9648;51.130;13.978;2022-10-16T03:12:54;18.38;;;16.45;;
19030;SDS011;9648;51.130;13.978;2022-10-16T03:15:21;17.73;;;15.88;;
19030;SDS011;9648;51.130;13.978;2022-10-16T03:17:48;16.33;;;14.63;;
19030;SDS011;9648;51.130;13.978;2022-10-16T03:20:15;17.65;;;15.63;;
19030;SDS011;9648;51.130;13.978;2022-10-16T03:22:43;18.60;;;16.60;;
19030;SDS011;9648;51.130;13.978;2022-10-16T03:25:09;17.63;;;15.73;;
19030;SDS011;9648;51.130;13.978;2022-10-16T03:27:36;16.63;;;14.93;;
19030;SDS011;9648;51.130;13.978;2022-10-16T03:30:03;18.05;;;16.15;;
19030;SDS011;9648;51.130;13.978;2022-10-16T03:32:31;17.58;;;15.77;;
19030;SDS011;9648;51.130;13.978;2022-10-16T03:34:57;17.75;;;15.95;;
19030;SDS011;9648;51.130;13.978;2022-10-16T03:37:24;17.67;;;15.80;;
19030;SDS011;9648;51.130;13.978;2022-10-16T03:39:53;18.33;;;16.23;;
19030;SDS011;9648;51.130;13.978;2022-10-16T03:42:20;19.17;;;17.20;;
19030;SDS011;9648;51.130;13.978;2022-10-16T03:44:46;17.67;;;15.88;;
19030;SDS011;9648;51.130;13.978;2022-10-16T03:47:13;17.85;;;16.05;;
19030;SDS011;9648;51.130;13.978;2022-10-16T03:49:40;20.00;;;17.42;;
19030;SDS011;9648;51.130;13.978;2022-10-16T03:52:07;18.10;;;16.13;;
19030;SDS011;9648;51.130;13.978;2022-10-16T03:54:33;17.45;;;15.55;;
19030;SDS011;9648;51.130;13.978;2022-10-16T03:57:02;18.27;;;16.38;;
19030;SDS011;9648;51.130;13.978;2022-10-16T03:59:29;16.67;;;14.98;;
19030;SDS011;9648;51.130;13.978;2022-10-16T04:01:55;18.60;;;16.60;;
19030;SDS011;9648;51.130;13.978;2022-10-16T04:04:22;17.92;;;15.27;;
19030;SDS011;9648;51.130;13.978;2022-10-16T04:06:50;18.13;;;16.33;;
19030;SDS011;9648;51.130;13.978;2022-10-16T04:09:16;17.60;;;15.80;;
19030;SDS011;9648;51.130;13.978;2022-10-16T04:11:43;18.02;;;16.23;;
19030;SDS011;9648;51.130;13.978;2022-10-16T04:14:11;17.75;;;15.93;;
19030;SDS011;9648;51.130;13.978;2022-10-16T04:16:38;16.10;;;14.40;;
19030;SDS011;9648;51.130;13.978;2022-10-16T04:19:05;16.73;;;15.10;;
19030;SDS011;9648;51.130;13.978;2022-10-16T04:21:32;15.60;;;14.00;;
19030;SDS011;9648;51.130;13.978;2022-10-16T04:23:59;16.38;;;14.70;;
19030;SDS011;9648;51.130;13.978;2022-10-16T04:26:25;16.98;;;15.27;;
19030;SDS011;9648;51.130;13.978;2022-10-16T04:28:52;17.20;;;15.50;;
19030;SDS011;9648;51.130;13.978;2022-10-16T04:31:21;17.05;;;15.25;;
19030;SDS011;9648;51.130;13.978;2022-10-16T04:33:47;17.97;;;15.63;;
19030;SDS011;9648;51.130;13.978;2022-10-16T04:36:14;18.10;;;15.48;;
19030;SDS011;9648;51.130;13.978;2022-10-16T04:38:41;17.02;;;15.32;;
19030;SDS011;9648;51.130;13.978;2022-10-16T04:41:08;16.80;;;15.10;;
19030;SDS011;9648;51.130;13.978;2022-10-16T04:43:35;16.83;;;15.13;;
19030;SDS011;9648;51.130;13.978;2022-10-16T04:46:01;16.63;;;14.93;;
19030;SDS011;9648;51.130;13.978;2022-10-16T04:48:31;19.40;;;15.60;;
19030;SDS011;9648;51.130;13.978;2022-10-16T04:50:58;16.25;;;14.55;;
19030;SDS011;9648;51.130;13.978;2022-10-16T04:53:25;17.00;;;15.30;;
19030;SDS011;9648;51.130;13.978;2022-10-16T04:55:52;16.15;;;14.48;;
19030;SDS011;9648;51.130;13.978;2022-10-16T04:58:19;15.75;;;14.13;;
19030;SDS011;9648;51.130;13.978;2022-10-16T05:00:46;15.52;;;13.93;;
19030;SDS011;9648;51.130;13.978;2022-10-16T05:03:13;15.05;;;13.50;;
19030;SDS011;9648;51.130;13.978;2022-10-16T05:05:43;14.18;;;12.77;;
19030;SDS011;9648;51.130;13.978;2022-10-16T05:08:11;13.32;;;12.00;;
19030;SDS011;9648;51.130;13.978;2022-10-16T05:10:38;15.75;;;14.07;;
19030;SDS011;9648;51.130;13.978;2022-10-16T05:13:05;15.55;;;13.95;;
19030;SDS011;9648;51.130;13.978;2022-10-16T05:15:32;14.30;;;12.80;;
19030;SDS011;9648;51.130;13.978;2022-10-16T05:17:59;15.98;;;14.23;;
19030;SDS011;9648;51.130;13.978;2022-10-16T05:20:26;14.77;;;13.27;;
19030;SDS011;9648;51.130;13.978;2022-10-16T05:22:54;16.25;;;14.23;;
19030;SDS011;9648;51.130;13.978;2022-10-16T05:25:21;16.33;;;14.73;;
19030;SDS011;9648;51.130;13.978;2022-10-16T05:27:48;16.95;;;15.25;;
19030;SDS011;9648;51.130;13.978;2022-10-16T05:30:15;15.60;;;14.00;;
19030;SDS011;9648;51.130;13.978;2022-10-16T05:32:45;16.67;;;14.98;;
19030;SDS011;9648;51.130;13.978;2022-10-16T05:35:13;16.63;;;14.75;;
19030;SDS011;9648;51.130;13.978;2022-10-16T05:37:40;16.60;;;14.90;;
19030;SDS011;9648;51.130;13.978;2022-10-16T05:40:08;16.33;;;14.68;;
19030;SDS011;9648;51.130;13.978;2022-10-16T05:42:36;17.85;;;16.00;;
19030;SDS011;9648;51.130;13.978;2022-10-16T05:45:04;16.63;;;14.98;;
19030;SDS011;9648;51.130;13.978;2022-10-16T05:47:32;19.48;;;17.58;;
19030;SDS011;9648;51.130;13.978;2022-10-16T05:49:59;23.02;;;20.17;;
19030;SDS011;9648;51.130;13.978;2022-10-16T05:52:26;24.38;;;21.55;;
19030;SDS011;9648;51.130;13.978;2022-10-16T05:54:53;24.25;;;21.13;;
19030;SDS011;9648;51.130;13.978;2022-10-16T05:57:21;22.95;;;20.55;;
19030;SDS011;9648;51.130;13.978;2022-10-16T05:59:48;20.90;;;18.70;;
19030;SDS011;9648;51.130;13.978;2022-10-16T06:02:15;21.88;;;19.40;;
19030;SDS011;9648;51.130;13.978;2022-10-16T06:04:42;24.20;;;20.92;;
19030;SDS011;9648;51.130;13.978;2022-10-16T06:07:08;22.88;;;19.55;;
19030;SDS011;9648;51.130;13.978;2022-10-16T06:09:35;21.30;;;19.10;;
19030;SDS011;9648;51.130;13.978;2022-10-16T06:12:02;21.27;;;19.00;;
19030;SDS011;9648;51.130;13.978;2022-10-16T06:14:30;22.03;;;19.60;;
19030;SDS011;9648;51.130;13.978;2022-10-16T06:16:57;22.90;;;20.43;;
19030;SDS011;9648;51.130;13.978;2022-10-16T06:19:24;22.33;;;19.38;;
19030;SDS011;9648;51.130;13.978;2022-10-16T06:21:51;21.98;;;19.67;;
19030;SDS011;9648;51.130;13.978;2022-10-16T06:24:18;22.38;;;19.40;;
19030;SDS011;9648;51.130;13.978;2022-10-16T06:26:44;20.08;;;17.95;;
19030;SDS011;9648;51.130;13.978;2022-10-16T06:29:11;21.15;;;17.85;;
19030;SDS011;9648;51.130;13.978;2022-10-16T06:31:39;18.25;;;16.45;;
19030;SDS011;9648;51.130;13.978;2022-10-16T06:34:08;19.50;;;17.50;;
19030;SDS011;9648;51.130;13.978;2022-10-16T06:36:36;19.05;;;17.15;;
19030;SDS011;9648;51.130;13.978;2022-10-16T06:39:03;18.38;;;16.58;;
19030;SDS011;9648;51.130;13.978;2022-10-16T06:41:32;17.30;;;15.60;;
19030;SDS011;9648;51.130;13.978;2022-10-16T06:43:59;18.42;;;16.52;;
19030;SDS011;9648;51.130;13.978;2022-10-16T06:46:26;18.10;;;16.30;;
19030;SDS011;9648;51.130;13.978;2022-10-16T06:48:54;18.15;;;16.25;;
19030;SDS011;9648;51.130;13.978;2022-10-16T06:51:22;18.38;;;16.50;;
19030;SDS011;9648;51.130;13.978;2022-10-16T06:53:50;17.40;;;15.70;;
19030;SDS011;9648;51.130;13.978;2022-10-16T06:56:19;15.88;;;14.27;;
19030;SDS011;9648;51.130;13.978;2022-10-16T06:58:47;16.90;;;15.10;;
19030;SDS011;9648;51.130;13.978;2022-10-16T07:01:15;16.00;;;14.48;;
19030;SDS011;9648;51.130;13.978;2022-10-16T07:03:43;15.88;;;14.27;;
19030;SDS011;9648;51.130;13.978;2022-10-16T07:06:13;18.50;;;16.50;;
19030;SDS011;9648;51.130;13.978;2022-10-16T07:08:41;16.50;;;14.80;;
19030;SDS011;9648;51.130;13.978;2022-10-16T07:11:12;20.42;;;18.13;;
19030;SDS011;9648;51.130;13.978;2022-10-16T07:13:40;16.27;;;14.57;;
19030;SDS011;9648;51.130;13.978;2022-10-16T07:16:09;17.20;;;14.40;;
19030;SDS011;9648;51.130;13.978;2022-10-16T07:18:37;15.85;;;14.25;;
19030;SDS011;9648;51.130;13.978;2022-10-16T07:21:05;14.07;;;12.60;;
19030;SDS011;9648;51.130;13.978;2022-10-16T07:23:34;15.80;;;14.20;;
19030;SDS011;9648;51.130;13.978;2022-10-16T07:26:01;14.23;;;12.82;;
19030;SDS011;9648;51.130;13.978;2022-10-16T07:28:28;14.50;;;12.57;;
19030;SDS011;9648;51.130;13.978;2022-10-16T07:30:59;13.40;;;12.10;;
19030;SDS011;9648;51.130;13.978;2022-10-16T07:33:27;16.10;;;14.45;;
19030;SDS011;9648;51.130;13.978;2022-10-16T07:35:54;16.48;;;14.23;;
19030;SDS011;9648;51.130;13.978;2022-10-16T07:38:21;18.17;;;14.88;;
19030;SDS011;9648;51.130;13.978;2022-10-16T07:40:55;14.48;;;12.93;;
19030;SDS011;9648;51.130;13.978;2022-10-16T07:43:23;16.60;;;13.95;;
19030;SDS011;9648;51.130;13.978;2022-10-16T07:45:50;17.05;;;14.30;;
19030;SDS011;9648;51.130;13.978;2022-10-16T07:48:17;21.73;;;15.07;;
19030;SDS011;9648;51.130;13.978;2022-10-16T07:50:44;16.73;;;13.65;;
19030;SDS011;9648;51.130;13.978;2022-10-16T07:53:11;18.75;;;14.48;;
19030;SDS011;9648;51.130;13.978;2022-10-16T07:55:39;22.67;;;15.40;;
19030;SDS011;9648;51.130;13.978;2022-10-16T07:58:07;21.83;;;14.98;;
19030;SDS011;9648;51.130;13.978;2022-10-16T08:00:35;20.05;;;13.85;;
19030;SDS011;9648;51.130;13.978;2022-10-16T08:03:03;16.08;;;11.82;;
19030;SDS011;9648;51.130;13.978;2022-10-16T08:05:30;13.45;;;11.48;;
19030;SDS011;9648;51.130;13.978;2022-10-16T08:07:58;14.13;;;11.98;;
19030;SDS011;9648;51.130;13.978;2022-10-16T08:10:26;12.00;;;10.55;;
19030;SDS011;9648;51.130;13.978;2022-10-16T08:12:54;14.45;;;11.10;;
19030;SDS011;9648;51.130;13.978;2022-10-16T08:15:22;11.30;;;10.20;;
19030;SDS011;9648;51.130;13.978;2022-10-16T08:17:56;11.13;;;9.93;;
19030;SDS011;9648;51.130;13.978;2022-10-16T08:20:24;10.67;;;9.60;;
19030;SDS011;9648;51.130;13.978;2022-10-16T08:22:51;9.40;;;8.50;;
19030;SDS011;9648;51.130;13.978;2022-10-16T08:25:19;9.88;;;8.88;;
19030;SDS011;9648;51.130;13.978;2022-10-16T08:27:46;9.30;;;8.40;;
19030;SDS011;9648;51.130;13.978;2022-10-16T08:30:13;10.15;;;8.63;;
19030;SDS011;9648;51.130;13.978;2022-10-16T08:32:41;9.93;;;9.00;;
19030;SDS011;9648;51.130;13.978;2022-10-16T08:35:08;9.63;;;8.63;;
19030;SDS011;9648;51.130;13.978;2022-10-16T08:37:35;9.30;;;8.40;;
19030;SDS011;9648;51.130;13.978;2022-10-16T08:40:03;9.02;;;8.23;;
19030;SDS011;9648;51.130;13.978;2022-10-16T08:42:34;9.90;;;8.90;;
19030;SDS011;9648;51.130;13.978;2022-10-16T08:45:25;9.75;;;8.85;;
19030;SDS011;9648;51.130;13.978;2022-10-16T08:48:06;9.25;;;7.95;;
19030;SDS011;9648;51.130;13.978;2022-10-16T08:50:41;8.32;;;7.63;;
19030;SDS011;9648;51.130;13.978;2022-10-16T08:53:09;10.48;;;8.73;;
19030;SDS011;9648;51.130;13.978;2022-10-16T08:55:43;8.13;;;7.43;;
19030;SDS011;9648;51.130;13.978;2022-10-16T08:58:15;9.80;;;8.80;;
19030;SDS011;9648;51.130;13.978;2022-10-16T09:00:44;8.60;;;7.85;;
19030;SDS011;9648;51.130;13.978;2022-10-16T09:03:17;8.77;;;7.97;;
19030;SDS011;9648;51.130;13.978;2022-10-16T09:05:57;8.45;;;7.65;;
19030;SDS011;9648;51.130;13.978;2022-10-16T09:08:34;9.07;;;8.27;;
19030;SDS011;9648;51.130;13.978;2022-10-16T09:11:12;9.52;;;8.43;;
19030;SDS011;9648;51.130;13.978;2022-10-16T09:13:43;9.75;;;8.85;;
19030;SDS011;9648;51.130;13.978;2022-10-16T09:16:19;9.93;;;8.98;;
19030;SDS011;9648;51.130;13.978;2022-10-16T09:18:53;10.80;;;8.63;;
19030;SDS011;9648;51.130;13.978;2022-10-16T09:21:26;10.55;;;9.35;;
19030;SDS011;9648;51.130;13.978;2022-10-16T09:23:57;9.60;;;8.70;;
19030;SDS011;9648;51.130;13.978;2022-10-16T09:26:25;10.52;;;9.50;;
19030;SDS011;9648;51.130;13.978;2022-10-16T09:28:52;9.98;;;9.07;;
19030;SDS011;9648;51.130;13.978;2022-10-16T09:31:20;10.32;;;9.43;;
19030;SDS011;9648;51.130;13.978;2022-10-16T09:33:49;11.00;;;9.80;;
19030;SDS011;9648;51.130;13.978;2022-10-16T09:36:23;10.60;;;9.60;;
19030;SDS011;9648;51.130;13.978;2022-10-16T09:39:01;10.57;;;9.50;;
19030;SDS011;9648;51.130;13.978;2022-10-16T09:41:30;10.63;;;9.52;;
19030;SDS011;9648;51.130;13.978;2022-10-16T09:44:00;10.20;;;9.20;;
19030;SDS011;9648;51.130;13.978;2022-10-16T09:46:30;10.82;;;9.52;;
19030;SDS011;9648;51.130;13.978;2022-10-16T09:49:18;10.77;;;9.70;;
19030;SDS011;9648;51.130;13.978;2022-10-16T09:51:47;11.27;;;9.95;;
19030;SDS011;9648;51.130;13.978;2022-10-16T09:54:14;10.10;;;9.10;;
19030;SDS011;9648;51.130;13.978;2022-10-16T09:56:43;10.70;;;9.07;;
19030;SDS011;9648;51.130;13.978;2022-10-16T09:59:12;10.00;;;9.00;;
19030;SDS011;9648;51.130;13.978;2022-10-16T10:01:40;10.20;;;9.20;;
19030;SDS011;9648;51.130;13.978;2022-10-16T10:04:10;9.88;;;8.80;;
19030;SDS011;9648;51.130;13.978;2022-10-16T10:06:42;9.70;;;8.80;;
19030;SDS011;9648;51.130;13.978;2022-10-16T10:09:15;9.38;;;8.48;;
19030;SDS011;9648;51.130;13.978;2022-10-16T10:11:48;9.10;;;8.20;;
19030;SDS011;9648;51.130;13.978;2022-10-16T10:14:27;9.00;;;8.10;;
19030;SDS011;9648;51.130;13.978;2022-10-16T10:17:15;8.25;;;7.47;;
19030;SDS011;9648;51.130;13.978;2022-10-16T10:19:45;8.30;;;7.50;;
19030;SDS011;9648;51.130;13.978;2022-10-16T10:22:19;7.60;;;6.85;;
19030;SDS011;9648;51.130;13.978;2022-10-16T10:25:12;8.70;;;6.35;;
19030;SDS011;9648;51.130;13.978;2022-10-16T10:30:47;7.68;;;6.55;;
19030;SDS011;9648;51.130;13.978;2022-10-16T10:33:24;6.47;;;5.88;;
19030;SDS011;9648;51.130;13.978;2022-10-16T10:36:00;7.50;;;6.00;;
19030;SDS011;9648;51.130;13.978;2022-10-16T10:38:39;6.57;;;5.88;;
19030;SDS011;9648;51.130;13.978;2022-10-16T10:44:16;4.93;;;4.53;;
19030;SDS011;9648;51.130;13.978;2022-10-16T10:46:51;4.00;;;3.60;;
19030;SDS011;9648;51.130;13.978;2022-10-16T10:49:27;5.05;;;3.95;;
19030;SDS011;9648;51.130;13.978;2022-10-16T10:52:11;4.68;;;3.80;;
19030;SDS011;9648;51.130;13.978;2022-10-16T10:54:53;5.45;;;3.70;;
19030;SDS011;9648;51.130;13.978;2022-10-16T10:57:28;2.75;;;2.15;;
19030;SDS011;9648;51.130;13.978;2022-10-16T10:59:58;4.32;;;2.50;;
19030;SDS011;9648;51.130;13.978;2022-10-16T11:02:44;2.67;;;1.50;;
19030;SDS011;9648;51.130;13.978;2022-10-16T11:05:18;2.10;;;1.70;;
19030;SDS011;9648;51.130;13.978;2022-10-16T11:08:00;1.70;;;1.30;;
19030;SDS011;9648;51.130;13.978;2022-10-16T11:10:36;2.80;;;1.40;;
19030;SDS011;9648;51.130;13.978;2022-10-16T11:13:11;2.55;;;1.80;;
19030;SDS011;9648;51.130;13.978;2022-10-16T11:15:46;2.20;;;1.50;;
19030;SDS011;9648;51.130;13.978;2022-10-16T11:18:16;1.50;;;1.20;;
19030;SDS011;9648;51.130;13.978;2022-10-16T11:20:47;4.00;;;1.40;;
19030;SDS011;9648;51.130;13.978;2022-10-16T11:23:18;2.72;;;1.33;;
19030;SDS011;9648;51.130;13.978;2022-10-16T11:25:52;1.80;;;1.17;;
19030;SDS011;9648;51.130;13.978;2022-10-16T11:28:25;2.33;;;1.10;;
19030;SDS011;9648;51.130;13.978;2022-10-16T11:30:59;1.38;;;1.25;;
19030;SDS011;9648;51.130;13.978;2022-10-16T11:33:30;1.20;;;0.90;;
19030;SDS011;9648;51.130;13.978;2022-10-16T11:36:04;1.90;;;1.30;;
19030;SDS011;9648;51.130;13.978;2022-10-16T11:38:39;2.70;;;2.50;;
19030;SDS011;9648;51.130;13.978;2022-10-16T11:41:15;3.08;;;2.78;;
19030;SDS011;9648;51.130;13.978;2022-10-16T11:43:48;3.05;;;2.65;;
19030;SDS011;9648;51.130;13.978;2022-10-16T11:46:22;4.70;;;4.00;;
19030;SDS011;9648;51.130;13.978;2022-10-16T11:48:54;6.78;;;4.70;;
19030;SDS011;9648;51.130;13.978;2022-10-16T11:51:29;5.57;;;5.03;;
19030;SDS011;9648;51.130;13.978;2022-10-16T11:54:02;6.43;;;5.47;;
19030;SDS011;9648;51.130;13.978;2022-10-16T11:56:37;4.67;;;3.27;;
19030;SDS011;9648;51.130;13.978;2022-10-16T11:59:08;1.33;;;0.90;;
19030;SDS011;9648;51.130;13.978;2022-10-16T12:01:43;1.50;;;0.70;;
19030;SDS011;9648;51.130;13.978;2022-10-16T12:04:15;1.10;;;0.70;;
19030;SDS011;9648;51.130;13.978;2022-10-16T12:06:49;1.33;;;1.10;;
19030;SDS011;9648;51.130;13.978;2022-10-16T12:09:20;1.42;;;0.60;;
19030;SDS011;9648;51.130;13.978;2022-10-16T12:11:53;2.20;;;0.50;;
19030;SDS011;9648;51.130;13.978;2022-10-16T12:14:34;1.90;;;0.50;;
19030;SDS011;9648;51.130;13.978;2022-10-16T12:17:03;1.17;;;0.40;;
19030;SDS011;9648;51.130;13.978;2022-10-16T12:19:56;2.50;;;0.80;;
19030;SDS011;9648;51.130;13.978;2022-10-16T12:22:25;1.13;;;0.70;;
19030;SDS011;9648;51.130;13.978;2022-10-16T12:24:54;0.93;;;0.60;;
19030;SDS011;9648;51.130;13.978;2022-10-16T12:27:24;1.15;;;0.77;;
19030;SDS011;9648;51.130;13.978;2022-10-16T12:29:54;2.20;;;1.00;;
19030;SDS011;9648;51.130;13.978;2022-10-16T12:32:24;1.70;;;0.70;;
19030;SDS011;9648;51.130;13.978;2022-10-16T12:34:55;1.73;;;0.60;;
19030;SDS011;9648;51.130;13.978;2022-10-16T12:37:23;2.35;;;0.50;;
19030;SDS011;9648;51.130;13.978;2022-10-16T12:39:52;1.55;;;0.47;;
19030;SDS011;9648;51.130;13.978;2022-10-16T12:42:23;0.90;;;0.50;;
19030;SDS011;9648;51.130;13.978;2022-10-16T12:44:58;1.63;;;0.52;;
19030;SDS011;9648;51.130;13.978;2022-10-16T12:47:35;0.50;;;0.50;;
19030;SDS011;9648;51.130;13.978;2022-10-16T12:50:03;0.60;;;0.50;;
19030;SDS011;9648;51.130;13.978;2022-10-16T12:52:51;0.88;;;0.77;;
19030;SDS011;9648;51.130;13.978;2022-10-16T12:55:19;1.70;;;0.70;;
19030;SDS011;9648;51.130;13.978;2022-10-16T12:57:53;1.90;;;0.60;;
19030;SDS011;9648;51.130;13.978;2022-10-16T13:00:37;2.05;;;0.80;;
19030;SDS011;9648;51.130;13.978;2022-10-16T13:03:19;1.30;;;0.60;;
19030;SDS011;9648;51.130;13.978;2022-10-16T13:06:11;1.77;;;0.70;;
19030;SDS011;9648;51.130;13.978;2022-10-16T13:09:02;1.02;;;0.60;;
19030;SDS011;9648;51.130;13.978;2022-10-16T13:11:42;1.20;;;0.80;;
19030;SDS011;9648;51.130;13.978;2022-10-16T13:14:34;1.48;;;1.02;;
19030;SDS011;9648;51.130;13.978;2022-10-16T13:17:22;1.38;;;0.98;;
19030;SDS011;9648;51.130;13.978;2022-10-16T13:19:55;1.10;;;0.80;;
19030;SDS011;9648;51.130;13.978;2022-10-16T13:22:29;1.52;;;0.80;;
19030;SDS011;9648;51.130;13.978;2022-10-16T13:25:08;2.30;;;0.60;;
19030;SDS011;9648;51.130;13.978;2022-10-16T13:27:45;1.67;;;1.00;;
19030;SDS011;9648;51.130;13.978;2022-10-16T13:30:20;1.60;;;0.70;;
19030;SDS011;9648;51.130;13.978;2022-10-16T13:32:50;0.80;;;0.60;;
19030;SDS011;9648;51.130;13.978;2022-10-16T13:35:23;1.27;;;0.60;;
19030;SDS011;9648;51.130;13.978;2022-10-16T13:38:02;2.00;;;1.50;;
19030;SDS011;9648;51.130;13.978;2022-10-16T13:40:30;1.08;;;0.60;;
19030;SDS011;9648;51.130;13.978;2022-10-16T13:42:59;1.57;;;0.70;;
19030;SDS011;9648;51.130;13.978;2022-10-16T13:45:28;1.43;;;0.67;;
19030;SDS011;9648;51.130;13.978;2022-10-16T13:48:01;1.42;;;0.90;;
19030;SDS011;9648;51.130;13.978;2022-10-16T13:50:29;1.30;;;0.70;;
19030;SDS011;9648;51.130;13.978;2022-10-16T13:53:03;1.25;;;1.00;;
19030;SDS011;9648;51.130;13.978;2022-10-16T13:55:30;1.50;;;0.90;;
19030;SDS011;9648;51.130;13.978;2022-10-16T13:58:04;1.10;;;0.63;;
19030;SDS011;9648;51.130;13.978;2022-10-16T14:00:39;1.30;;;1.20;;
19030;SDS011;9648;51.130;13.978;2022-10-16T14:03:11;0.70;;;0.70;;
19030;SDS011;9648;51.130;13.978;2022-10-16T14:05:41;1.70;;;1.40;;
19030;SDS011;9648;51.130;13.978;2022-10-16T14:08:11;1.42;;;1.00;;
19030;SDS011;9648;51.130;13.978;2022-10-16T14:10:38;1.05;;;0.75;;
19030;SDS011;9648;51.130;13.978;2022-10-16T14:13:06;0.70;;;0.70;;
19030;SDS011;9648;51.130;13.978;2022-10-16T14:15:34;0.60;;;0.50;;
19030;SDS011;9648;51.130;13.978;2022-10-16T14:18:04;0.93;;;0.50;;
19030;SDS011;9648;51.130;13.978;2022-10-16T14:20:31;1.15;;;0.60;;
19030;SDS011;9648;51.130;13.978;2022-10-16T14:23:01;0.90;;;0.50;;
19030;SDS011;9648;51.130;13.978;2022-10-16T14:25:29;1.10;;;0.50;;
19030;SDS011;9648;51.130;13.978;2022-10-16T14:27:58;1.40;;;0.50;;
19030;SDS011;9648;51.130;13.978;2022-10-16T14:30:27;0.70;;;0.50;;
19030;SDS011;9648;51.130;13.978;2022-10-16T14:32:56;0.75;;;0.60;;
19030;SDS011;9648;51.130;13.978;2022-10-16T14:35:27;0.88;;;0.68;;
19030;SDS011;9648;51.130;13.978;2022-10-16T14:37:56;3.10;;;0.70;;
19030;SDS011;9648;51.130;13.978;2022-10-16T14:40:25;1.65;;;0.80;;
19030;SDS011;9648;51.130;13.978;2022-10-16T14:42:54;1.73;;;0.60;;
19030;SDS011;9648;51.130;13.978;2022-10-16T14:45:21;2.00;;;0.70;;
19030;SDS011;9648;51.130;13.978;2022-10-16T14:47:51;2.05;;;0.80;;
19030;SDS011;9648;51.130;13.978;2022-10-16T14:50:20;1.70;;;0.70;;
19030;SDS011;9648;51.130;13.978;2022-10-16T14:52:48;3.78;;;0.95;;
19030;SDS011;9648;51.130;13.978;2022-10-16T14:55:15;3.00;;;0.80;;